Time;durP1;ratioP1;P1;durP2;ratioP2;P2;SDS_P1;SDS_P2;PMS_P1;PMS_P2;Temp;Humidity;BMP_temperature;BMP_pressure;BME280_temperature;BME280_humidity;BME280_pressure;Samples;Min_cycle;Max_cycle;Signal;HPM_P1;HPM_P2
2023/09/29 00:01:21;;;;;;;8.60;7.70;;;24.10;56.40;;;;;;217105;1293;25703;-64
2023/09/29 00:06:24;;;;;;;10.30;6.80;;;24.10;56.50;;;;;;216935;1298;23940;-63
2023/09/29 00:11:31;;;;;;;15.00;8.60;;;24.10;56.40;;;;;;217000;1298;22549;-62
2023/09/29 00:16:33;;;;;;;8.00;7.30;;;24.10;56.40;;;;;;217243;1298;22564;-62
2023/09/29 00:21:36;;;;;;;11.90;8.30;;;24.10;56.60;;;;;;217259;1298;22549;-62
2023/09/29 00:26:39;;;;;;;13.90;8.50;;;24.10;56.60;;;;;;216778;1293;25182;-63
2023/09/29 00:31:42;;;;;;;10.30;8.10;;;24.00;56.60;;;;;;217332;1282;22813;-62
2023/09/29 00:36:47;;;;;;;11.90;7.30;;;24.00;56.50;;;;;;217138;1286;22614;-62
2023/09/29 00:41:50;;;;;;;8.90;7.50;;;24.00;56.50;;;;;;217080;1285;22675;-62
2023/09/29 00:46:56;;;;;;;7.90;7.10;;;24.00;56.40;;;;;;217171;1292;22580;-65
2023/09/29 00:52:01;;;;;;;8.10;7.30;;;24.00;56.30;;;;;;217257;1295;22555;-61
2023/09/29 00:57:05;;;;;;;7.50;6.80;;;24.00;56.00;;;;;;217248;1285;25394;-62
2023/09/29 01:02:10;;;;;;;12.80;7.80;;;24.00;56.20;;;;;;217157;1285;22588;-61
2023/09/29 01:07:13;;;;;;;8.30;7.00;;;23.90;56.10;;;;;;216965;1285;22596;-63
2023/09/29 01:12:27;;;;;;;10.80;7.50;;;23.90;56.10;;;;;;216970;1291;24244;-62
2023/09/29 01:17:30;;;;;;;7.70;6.90;;;23.90;56.10;;;;;;217073;1289;23930;-62
2023/09/29 01:22:33;;;;;;;8.80;7.90;;;23.90;56.10;;;;;;217081;1291;22586;-62
2023/09/29 01:27:37;;;;;;;8.90;6.80;;;23.90;56.00;;;;;;217106;1292;22747;-64
2023/09/29 01:32:42;;;;;;;8.60;7.20;;;23.90;56.00;;;;;;216892;1294;22667;-63
2023/09/29 01:37:46;;;;;;;7.90;7.00;;;23.90;55.80;;;;;;217012;1294;25332;-62
2023/09/29 01:42:51;;;;;;;8.80;6.80;;;23.90;55.90;;;;;;217206;1291;25284;-63
2023/09/29 01:47:54;;;;;;;8.00;7.20;;;23.90;55.80;;;;;;217268;1295;24332;-64
2023/09/29 01:52:57;;;;;;;9.60;6.50;;;23.90;55.90;;;;;;217233;1294;23930;-64
2023/09/29 01:58:00;;;;;;;8.10;7.00;;;23.80;55.80;;;;;;217161;1295;22553;-64
2023/09/29 02:03:06;;;;;;;7.80;6.90;;;23.80;55.80;;;;;;217103;1295;22761;-63
2023/09/29 02:08:10;;;;;;;8.50;7.00;;;23.80;55.70;;;;;;217263;1282;22522;-63
2023/09/29 02:13:13;;;;;;;8.90;7.70;;;23.80;56.20;;;;;;217212;1295;23060;-66
2023/09/29 02:18:17;;;;;;;8.20;7.10;;;23.80;55.90;;;;;;217265;1295;23049;-62
2023/09/29 02:23:22;;;;;;;9.00;6.80;;;23.70;55.50;;;;;;216913;1298;22550;-62
2023/09/29 02:28:30;;;;;;;9.20;6.60;;;23.70;55.70;;;;;;216979;1283;26573;-62
2023/09/29 02:33:33;;;;;;;8.60;6.90;;;23.70;55.60;;;;;;217095;1294;22655;-62
2023/09/29 02:38:36;;;;;;;9.20;7.00;;;23.70;55.60;;;;;;216843;1297;22713;-61
2023/09/29 02:43:40;;;;;;;9.80;7.20;;;23.70;55.50;;;;;;217026;1297;22572;-62
2023/09/29 02:48:43;;;;;;;8.50;6.90;;;23.70;55.50;;;;;;217308;1292;22533;-63
2023/09/29 02:53:49;;;;;;;9.70;7.30;;;23.70;55.60;;;;;;216814;1296;24263;-62
2023/09/29 02:58:54;;;;;;;9.10;6.60;;;23.70;55.40;;;;;;217244;1283;22550;-61
2023/09/29 03:03:58;;;;;;;10.00;6.70;;;23.70;55.60;;;;;;217107;1298;22585;-61
2023/09/29 03:09:01;;;;;;;9.10;7.10;;;23.60;55.40;;;;;;216892;1291;246682;-62
2023/09/29 03:14:04;;;;;;;7.50;6.70;;;23.60;56.00;;;;;;217164;1298;22725;-63
2023/09/29 03:19:08;;;;;;;7.90;7.10;;;23.60;55.90;;;;;;216846;1291;22552;-62
2023/09/29 03:24:11;;;;;;;8.90;6.60;;;23.70;56.20;;;;;;217135;1298;24870;-62
2023/09/29 03:29:13;;;;;;;9.50;6.90;;;23.70;56.30;;;;;;216916;1291;22565;-62
2023/09/29 03:34:17;;;;;;;9.40;6.90;;;23.70;56.20;;;;;;217187;1285;24273;-63
2023/09/29 03:39:19;;;;;;;11.10;7.50;;;23.70;55.80;;;;;;216776;1292;22576;-61
2023/09/29 03:44:23;;;;;;;7.60;6.80;;;23.60;56.20;;;;;;216947;1299;22682;-64
2023/09/29 03:49:26;;;;;;;8.40;5.90;;;23.70;55.50;;;;;;216987;1298;22567;-63
2023/09/29 03:54:29;;;;;;;9.70;6.60;;;23.60;55.90;;;;;;217039;1288;23944;-63
2023/09/29 03:59:32;;;;;;;10.40;6.40;;;23.70;55.80;;;;;;216983;1297;22559;-62
2023/09/29 04:04:35;;;;;;;7.40;6.60;;;23.60;55.60;;;;;;217172;1292;22698;-62
2023/09/29 04:09:39;;;;;;;8.60;6.80;;;23.60;55.80;;;;;;216990;1291;22613;-61
2023/09/29 04:14:42;;;;;;;9.60;7.20;;;23.60;56.20;;;;;;217162;1291;22646;-62
2023/09/29 04:19:46;;;;;;;7.80;6.80;;;23.60;56.00;;;;;;217128;1294;22682;-62
2023/09/29 04:24:49;;;;;;;7.80;5.40;;;23.60;56.00;;;;;;217133;1292;25247;-62
2023/09/29 04:29:52;;;;;;;8.20;7.00;;;23.60;56.00;;;;;;217202;1288;22685;-64
2023/09/29 04:34:55;;;;;;;8.50;6.90;;;23.50;56.00;;;;;;217416;1282;25204;-62
2023/09/29 04:39:58;;;;;;;9.10;6.90;;;23.50;55.50;;;;;;216967;1288;22818;-63
2023/09/29 04:45:00;;;;;;;7.90;6.60;;;23.50;55.70;;;;;;217262;1291;22599;-63
2023/09/29 04:50:05;;;;;;;7.90;7.00;;;23.50;55.90;;;;;;217241;1292;22590;-62
2023/09/29 04:55:09;;;;;;;8.80;6.80;;;23.40;55.70;;;;;;217193;1291;22766;-60
2023/09/29 05:00:12;;;;;;;7.30;6.40;;;23.50;55.90;;;;;;220885;1292;24251;-59
2023/09/29 05:05:15;;;;;;;10.90;6.50;;;23.60;55.60;;;;;;217141;1290;22557;-59
2023/09/29 05:10:19;;;;;;;13.50;7.10;;;23.60;55.60;;;;;;217078;1294;22559;-60
2023/09/29 05:15:22;;;;;;;8.50;7.20;;;23.50;56.30;;;;;;217205;1294;24103;-59
2023/09/29 05:20:25;;;;;;;8.30;6.90;;;23.40;56.00;;;;;;216896;1294;24385;-60
2023/09/29 05:25:28;;;;;;;12.60;7.70;;;23.50;55.90;;;;;;217030;1291;22583;-59
2023/09/29 05:30:31;;;;;;;11.40;7.00;;;23.50;56.00;;;;;;217225;1291;22662;-59
2023/09/29 05:35:35;;;;;;;8.40;6.20;;;23.30;55.60;;;;;;216932;1294;22559;-57
2023/09/29 05:40:38;;;;;;;11.40;6.40;;;23.40;56.50;;;;;;217207;1294;22695;-58
2023/09/29 05:45:45;;;;;;;6.60;6.00;;;23.40;57.00;;;;;;217034;1298;22611;-60
2023/09/29 05:50:47;;;;;;;8.10;6.50;;;23.40;57.00;;;;;;217236;1285;22634;-58
2023/09/29 05:55:53;;;;;;;8.30;6.70;;;23.50;57.70;;;;;;216949;1275;24240;-57
2023/09/29 06:00:55;;;;;;;10.30;6.00;;;23.60;57.40;;;;;;217011;1294;22557;-58
2023/09/29 06:05:59;;;;;;;8.40;5.50;;;23.50;58.10;;;;;;217439;1298;22578;-59
2023/09/29 06:11:03;;;;;;;12.50;6.10;;;23.70;57.60;;;;;;217347;1288;22680;-58
2023/09/29 06:16:06;;;;;;;14.30;6.70;;;23.70;57.60;;;;;;217322;1291;22555;-55
2023/09/29 06:21:08;;;;;;;9.90;7.00;;;23.70;57.50;;;;;;217013;1294;22552;-58
2023/09/29 06:26:12;;;;;;;11.40;6.80;;;23.80;57.00;;;;;;224841;1291;22402;-57
2023/09/29 06:31:14;;;;;;;10.50;6.60;;;23.80;57.20;;;;;;219742;1278;22607;-57
2023/09/29 06:36:17;;;;;;;8.50;6.20;;;23.80;56.60;;;;;;217294;1292;24208;-55
2023/09/29 06:41:20;;;;;;;6.00;5.30;;;23.90;56.90;;;;;;216884;1290;22556;-56
2023/09/29 06:46:23;;;;;;;11.30;6.40;;;23.90;57.50;;;;;;217033;1291;22576;-58
2023/09/29 06:51:26;;;;;;;6.70;6.10;;;23.80;57.30;;;;;;217300;1298;22566;-56
2023/09/29 06:56:29;;;;;;;9.30;6.70;;;23.90;57.20;;;;;;217363;1292;24323;-58
2023/09/29 07:01:36;;;;;;;9.60;6.20;;;23.90;56.90;;;;;;217636;1291;22558;-58
2023/09/29 07:06:39;;;;;;;7.50;5.80;;;23.80;57.50;;;;;;217349;1287;22599;-58
2023/09/29 07:11:42;;;;;;;9.10;6.80;;;23.70;57.60;;;;;;217229;1298;22563;-56
2023/09/29 07:16:49;;;;;;;7.70;6.00;;;23.80;57.20;;;;;;217167;1287;26252;-56
2023/09/29 07:21:52;;;;;;;7.10;6.40;;;23.80;57.00;;;;;;217265;1292;23926;-57
2023/09/29 07:26:55;;;;;;;11.10;6.20;;;23.90;56.80;;;;;;217298;1285;22556;-57
2023/09/29 07:31:59;;;;;;;9.20;7.50;;;23.90;56.90;;;;;;216995;1298;24215;-57
2023/09/29 07:37:02;;;;;;;9.00;5.70;;;23.90;57.10;;;;;;218826;1291;22566;-59
2023/09/29 07:42:05;;;;;;;8.00;6.40;;;23.90;56.90;;;;;;217585;1293;22688;-57
2023/09/29 07:47:10;;;;;;;10.40;7.30;;;23.90;57.00;;;;;;216957;1292;23668;-57
2023/09/29 07:52:16;;;;;;;7.30;6.00;;;24.10;56.70;;;;;;217343;1288;22671;-57
2023/09/29 07:57:31;;;;;;;15.40;8.90;;;24.00;57.30;;;;;;217179;1291;22806;-57
2023/09/29 08:02:36;;;;;;;11.20;6.80;;;24.10;57.10;;;;;;217062;1298;24264;-58
2023/09/29 08:07:40;;;;;;;7.10;5.40;;;24.20;56.90;;;;;;217172;1298;22630;-56
2023/09/29 08:12:43;;;;;;;8.60;5.30;;;24.30;56.70;;;;;;217153;1295;22553;-57
2023/09/29 08:17:46;;;;;;;8.60;5.10;;;24.30;56.70;;;;;;217198;1294;25661;-55
2023/09/29 08:22:53;;;;;;;6.90;5.10;;;24.30;56.80;;;;;;217340;1291;24251;-58
2023/09/29 08:27:57;;;;;;;4.80;4.40;;;24.30;56.80;;;;;;217208;1295;24378;-59
2023/09/29 08:33:00;;;;;;;6.30;5.70;;;24.40;57.10;;;;;;217468;1292;24264;-58
2023/09/29 08:38:22;;;;;;;5.90;5.40;;;24.40;56.60;;;;;;217282;1292;22731;-58
2023/09/29 08:43:28;;;;;;;9.20;5.90;;;24.50;56.50;;;;;;217147;1294;23227;-59
2023/09/29 08:48:36;;;;;;;7.50;5.20;;;24.50;56.60;;;;;;216558;1294;22560;-56
2023/09/29 08:53:43;;;;;;;6.90;5.40;;;24.60;56.50;;;;;;216654;1291;24790;-57
2023/09/29 08:58:47;;;;;;;6.90;5.40;;;24.60;56.30;;;;;;216597;1302;25479;-56
2023/09/29 09:03:53;;;;;;;7.50;5.40;;;24.70;56.60;;;;;;217032;1299;22617;-57
2023/09/29 09:09:02;;;;;;;5.50;5.00;;;24.70;56.70;;;;;;217545;1284;22582;-58
2023/09/29 09:14:07;;;;;;;8.00;4.70;;;24.80;56.20;;;;;;217635;1294;22766;-58
2023/09/29 09:19:15;;;;;;;5.40;4.80;;;24.80;56.10;;;;;;217153;1295;25351;-57
2023/09/29 09:24:20;;;;;;;5.30;4.80;;;24.90;56.40;;;;;;217830;1292;22565;-59
2023/09/29 09:29:24;;;;;;;5.50;5.10;;;24.90;55.80;;;;;;217383;1285;22556;-58
2023/09/29 09:34:37;;;;;;;5.70;5.10;;;25.10;56.30;;;;;;217218;1288;25413;-59
2023/09/29 09:39:43;;;;;;;8.90;5.70;;;25.10;56.00;;;;;;217072;1284;22611;-57
2023/09/29 09:44:46;;;;;;;5.30;4.50;;;25.20;55.70;;;;;;221172;1298;22546;-58
2023/09/29 09:49:55;;;;;;;5.30;4.90;;;25.50;55.40;;;;;;217453;1279;23851;-56
2023/09/29 09:55:04;;;;;;;4.90;4.50;;;25.50;55.20;;;;;;217658;1295;25414;-58
2023/09/29 10:00:12;;;;;;;7.10;4.90;;;25.50;55.20;;;;;;217653;1285;25389;-59
2023/09/29 10:05:24;;;;;;;4.50;4.10;;;25.50;55.40;;;;;;217556;1295;22637;-58
2023/09/29 10:10:32;;;;;;;5.40;4.70;;;25.50;55.90;;;;;;217328;1292;23042;-57
2023/09/29 10:15:35;;;;;;;4.80;4.40;;;25.50;55.50;;;;;;217509;1291;22555;-58
2023/09/29 10:20:38;;;;;;;5.20;4.80;;;25.60;55.60;;;;;;217303;1282;22598;-56
2023/09/29 10:25:44;;;;;;;3.70;3.50;;;25.70;55.40;;;;;;217281;1297;22555;-57
2023/09/29 10:30:48;;;;;;;5.70;4.80;;;25.70;55.70;;;;;;217008;1294;22561;-59
2023/09/29 10:42:16;;;;;;;4.70;4.30;;;25.70;55.20;;;;;;217264;1290;24266;-59
2023/09/29 10:47:36;;;;;;;4.40;4.00;;;25.80;55.20;;;;;;217386;1291;25435;-59
2023/09/29 10:52:40;;;;;;;5.70;4.80;;;25.90;55.20;;;;;;217639;1294;25440;-60
2023/09/29 10:57:44;;;;;;;8.20;4.70;;;26.00;55.10;;;;;;217389;1297;24253;-61
2023/09/29 11:02:49;;;;;;;6.10;4.60;;;26.10;53.50;;;;;;217147;1292;22561;-61
2023/09/29 11:07:52;;;;;;;6.10;4.60;;;26.10;53.00;;;;;;217342;1298;24270;-61
2023/09/29 11:12:55;;;;;;;5.50;4.60;;;26.20;52.50;;;;;;217149;1292;25434;-61
2023/09/29 11:17:57;;;;;;;10.10;4.70;;;26.30;52.10;;;;;;216984;1291;22553;-59
2023/09/29 11:23:06;;;;;;;5.90;4.80;;;26.40;51.80;;;;;;217523;1285;22605;-61
2023/09/29 11:28:13;;;;;;;10.00;4.70;;;26.60;50.80;;;;;;217468;1292;24260;-59
2023/09/29 11:33:17;;;;;;;8.80;4.30;;;26.70;49.80;;;;;;217324;1292;22691;-61
2023/09/29 11:38:20;;;;;;;10.90;5.70;;;26.50;50.20;;;;;;217393;1298;22568;-60
2023/09/29 11:43:25;;;;;;;6.60;4.40;;;26.60;49.70;;;;;;217300;1292;24274;-62
2023/09/29 11:48:28;;;;;;;5.70;4.60;;;26.80;48.90;;;;;;216772;1289;24299;-62
2023/09/29 11:53:31;;;;;;;5.30;4.00;;;26.70;49.00;;;;;;216615;1298;22556;-62
2023/09/29 11:58:35;;;;;;;4.30;4.00;;;26.70;48.60;;;;;;216680;1294;22622;-61
2023/09/29 12:03:39;;;;;;;12.90;3.70;;;26.60;49.30;;;;;;216725;1295;22560;-61
2023/09/29 12:08:42;;;;;;;7.50;4.00;;;26.60;49.60;;;;;;217771;1292;22555;-63
2023/09/29 12:13:45;;;;;;;6.10;4.20;;;26.80;49.30;;;;;;217150;1295;24105;-62
2023/09/29 12:18:48;;;;;;;15.20;5.10;;;26.80;49.20;;;;;;217556;1295;22572;-60
2023/09/29 12:23:51;;;;;;;5.60;4.80;;;26.90;48.90;;;;;;217332;1295;22667;-61
2023/09/29 12:28:54;;;;;;;9.30;8.20;;;27.00;48.70;;;;;;217182;1291;22555;-61
2023/09/29 12:33:56;;;;;;;8.70;6.80;;;27.00;49.10;;;;;;217251;1291;22575;-59
2023/09/29 12:39:03;;;;;;;7.80;5.50;;;27.10;48.40;;;;;;217582;1297;22565;-59
2023/09/29 12:44:07;;;;;;;7.90;6.20;;;27.10;48.30;;;;;;217279;1293;23939;-59
2023/09/29 12:49:11;;;;;;;8.60;5.80;;;27.20;48.60;;;;;;217384;1292;22730;-61
2023/09/29 12:54:14;;;;;;;9.40;4.30;;;27.10;48.70;;;;;;217405;1292;24401;-61
2023/09/29 12:59:17;;;;;;;8.50;3.50;;;27.20;46.80;;;;;;217487;1293;22556;-61
2023/09/29 13:04:25;;;;;;;5.30;4.50;;;27.30;45.30;;;;;;217253;1291;22559;-62
2023/09/29 13:09:28;;;;;;;7.80;3.70;;;27.10;45.80;;;;;;217355;1292;22694;-61
2023/09/29 13:14:31;;;;;;;5.20;4.70;;;27.30;45.90;;;;;;217468;1284;23934;-59
2023/09/29 13:19:34;;;;;;;5.10;3.80;;;27.20;46.60;;;;;;217334;1295;22556;-60
2023/09/29 13:24:37;;;;;;;12.50;8.60;;;27.10;47.70;;;;;;217299;1292;22556;-60
2023/09/29 13:29:40;;;;;;;6.90;5.90;;;27.10;48.40;;;;;;217448;1293;22559;-60
2023/09/29 13:34:43;;;;;;;13.30;4.40;;;27.10;49.20;;;;;;217276;1297;22572;-65
2023/09/29 13:39:45;;;;;;;6.40;5.20;;;27.00;49.70;;;;;;217304;1295;24298;-60
2023/09/29 13:44:48;;;;;;;6.90;4.10;;;27.00;49.90;;;;;;217397;1285;22554;-60
2023/09/29 13:49:51;;;;;;;5.50;4.40;;;27.00;50.10;;;;;;217314;1291;25571;-61
2023/09/29 13:54:54;;;;;;;4.50;4.10;;;27.00;50.30;;;;;;217468;1288;25309;-60
2023/09/29 13:59:56;;;;;;;4.20;3.80;;;27.00;50.30;;;;;;217289;1295;25561;-60
2023/09/29 14:05:00;;;;;;;4.00;3.50;;;27.00;50.60;;;;;;217012;1292;22569;-60
2023/09/29 14:10:04;;;;;;;4.20;3.80;;;27.00;50.70;;;;;;217365;1295;24344;-61
2023/09/29 14:15:08;;;;;;;4.10;3.80;;;27.00;51.30;;;;;;217383;1285;24236;-60
2023/09/29 14:20:12;;;;;;;4.20;3.80;;;26.90;51.00;;;;;;217447;1294;22555;-60
2023/09/29 14:25:14;;;;;;;3.50;3.20;;;26.90;51.70;;;;;;217140;1292;22615;-63
2023/09/29 14:30:18;;;;;;;3.80;3.40;;;26.90;51.70;;;;;;217492;1292;24282;-63
2023/09/29 14:35:20;;;;;;;4.00;3.70;;;26.90;51.30;;;;;;217241;1292;22571;-63
2023/09/29 14:40:28;;;;;;;4.20;3.20;;;26.90;51.80;;;;;;217499;1295;22551;-64
2023/09/29 14:45:31;;;;;;;4.80;2.90;;;26.90;51.60;;;;;;217249;1292;24119;-61
2023/09/29 14:50:38;;;;;;;4.30;3.60;;;26.80;51.90;;;;;;217284;1292;22702;-63
2023/09/29 14:55:52;;;;;;;4.10;3.00;;;26.90;51.90;;;;;;217266;1292;26554;-64
2023/09/29 15:00:55;;;;;;;3.20;2.90;;;26.90;51.90;;;;;;217175;1294;22565;-65
2023/09/29 15:06:05;;;;;;;7.20;3.10;;;26.90;51.90;;;;;;216878;1298;206319;-65
2023/09/29 15:11:15;;;;;;;7.30;3.50;;;26.60;53.20;;;;;;217001;1298;23458;-60
2023/09/29 15:16:19;;;;;;;7.70;3.40;;;26.60;53.00;;;;;;217143;1293;22678;-61
2023/09/29 15:21:22;;;;;;;6.30;3.80;;;26.50;53.30;;;;;;216786;1297;23937;-63
2023/09/29 15:26:30;;;;;;;7.20;4.30;;;26.40;53.70;;;;;;216814;1295;22568;-62
2023/09/29 15:31:33;;;;;;;7.10;4.40;;;26.10;54.20;;;;;;217213;1298;22589;-63
2023/09/29 15:36:36;;;;;;;9.10;5.00;;;26.10;55.30;;;;;;216951;1292;22564;-61
2023/09/29 15:41:40;;;;;;;7.80;6.30;;;26.10;55.70;;;;;;218122;1292;24340;-61
2023/09/29 15:46:45;;;;;;;20.90;12.00;;;25.90;55.60;;;;;;217460;1294;22678;-62
2023/09/29 15:51:48;;;;;;;31.40;20.40;;;26.00;55.40;;;;;;217186;1298;25336;-60
2023/09/29 15:56:51;;;;;;;36.70;26.10;;;26.00;54.90;;;;;;217054;1292;22561;-59
2023/09/29 16:01:54;;;;;;;37.00;26.80;;;26.00;55.40;;;;;;217113;1298;22554;-61
2023/09/29 16:06:57;;;;;;;32.30;22.20;;;26.00;55.80;;;;;;217245;1285;25387;-59
2023/09/29 16:11:59;;;;;;;34.40;23.80;;;26.10;56.00;;;;;;216890;1292;22558;-61
2023/09/29 16:17:03;;;;;;;28.90;18.80;;;26.10;56.40;;;;;;217081;1294;24345;-65
2023/09/29 16:22:09;;;;;;;20.60;15.20;;;26.00;56.50;;;;;;217283;1296;22577;-65
2023/09/29 16:27:11;;;;;;;20.20;13.80;;;25.90;56.80;;;;;;217213;1292;22702;-67
2023/09/29 16:32:15;;;;;;;20.30;12.50;;;26.00;56.60;;;;;;216898;1294;23287;-67
2023/09/29 16:37:33;;;;;;;14.10;11.50;;;25.80;57.30;;;;;;218754;1285;25515;-63
2023/09/29 16:42:36;;;;;;;22.60;13.30;;;25.90;56.60;;;;;;219162;1298;22598;-65
2023/09/29 16:47:38;;;;;;;29.30;13.40;;;26.00;56.30;;;;;;217194;1297;23534;-66
2023/09/29 16:52:42;;;;;;;24.00;14.70;;;25.90;55.80;;;;;;217258;1298;22572;-66
2023/09/29 16:57:45;;;;;;;30.00;14.80;;;25.70;56.00;;;;;;217349;1286;25388;-64
2023/09/29 17:02:47;;;;;;;50.60;18.50;;;25.70;56.00;;;;;;217303;1298;22628;-64
2023/09/29 17:07:53;;;;;;;36.70;18.20;;;25.60;56.00;;;;;;217358;1298;24408;-65
2023/09/29 17:12:56;;;;;;;33.00;17.40;;;25.50;56.20;;;;;;217311;1298;22671;-59
2023/09/29 17:17:59;;;;;;;37.50;22.10;;;25.40;56.10;;;;;;217162;1292;22546;-61
2023/09/29 17:23:02;;;;;;;32.50;15.10;;;25.40;56.00;;;;;;217154;1275;22596;-59
2023/09/29 17:28:08;;;;;;;19.30;11.70;;;25.30;57.00;;;;;;217354;1293;22536;-57
2023/09/29 17:33:18;;;;;;;16.30;9.10;;;25.20;57.80;;;;;;218754;1298;22579;-60
2023/09/29 17:38:35;;;;;;;16.20;8.00;;;25.10;58.70;;;;;;217278;1295;22569;-58
2023/09/29 17:43:44;;;;;;;35.80;7.60;;;25.10;60.10;;;;;;217350;1296;22874;-57
2023/09/29 17:48:52;;;;;;;19.80;9.90;;;25.00;59.70;;;;;;217237;1291;22552;-59
2023/09/29 17:54:02;;;;;;;;;;;24.90;59.30;;;;;;217478;1295;25425;-57
2023/09/29 17:59:06;;;;;;;17.30;7.90;;;25.00;58.30;;;;;;217483;1292;25654;-57
2023/09/29 18:04:11;;;;;;;17.30;8.30;;;25.00;58.40;;;;;;217512;1295;24100;-65
2023/09/29 18:09:15;;;;;;;16.30;8.10;;;24.90;58.40;;;;;;217155;1291;25367;-58
2023/09/29 18:14:18;;;;;;;15.30;7.30;;;24.90;59.20;;;;;;217460;1291;25403;-59
2023/09/29 18:19:24;;;;;;;16.50;7.00;;;24.90;59.20;;;;;;217467;1291;24276;-60
2023/09/29 18:24:28;;;;;;;16.60;7.00;;;24.80;59.70;;;;;;217303;1292;22619;-58
2023/09/29 18:29:31;;;;;;;34.60;7.00;;;24.70;59.20;;;;;;217017;1293;22564;-59
2023/09/29 18:34:36;;;;;;;24.40;11.40;;;24.70;59.50;;;;;;217405;1292;24286;-57
2023/09/29 18:39:40;;;;;;;15.40;7.80;;;24.70;59.00;;;;;;217249;1292;22691;-58
2023/09/29 18:44:45;;;;;;;14.80;7.30;;;24.50;60.10;;;;;;217512;1298;22588;-56
2023/09/29 18:49:49;;;;;;;12.20;7.80;;;24.50;60.50;;;;;;217417;1285;24117;-56
2023/09/29 18:54:53;;;;;;;11.50;6.80;;;24.50;61.10;;;;;;217430;1298;22577;-60
2023/09/29 19:00:00;;;;;;;14.60;8.80;;;24.50;61.40;;;;;;217512;1283;24322;-58
2023/09/29 19:05:06;;;;;;;15.80;9.30;;;24.50;61.20;;;;;;216970;1295;22557;-56
2023/09/29 19:10:15;;;;;;;12.90;8.10;;;24.40;61.70;;;;;;217317;1293;25615;-56
2023/09/29 19:15:20;;;;;;;11.90;8.20;;;24.30;61.30;;;;;;217516;1298;22608;-58
2023/09/29 19:20:25;;;;;;;11.50;8.00;;;24.30;61.10;;;;;;216345;1298;22611;-56
2023/09/29 19:25:35;;;;;;;10.80;8.70;;;24.30;61.20;;;;;;216104;1297;25524;-57
2023/09/29 19:30:41;;;;;;;11.30;8.00;;;24.20;61.10;;;;;;216092;1298;24305;-55
2023/09/29 19:35:45;;;;;;;13.70;7.60;;;24.20;61.60;;;;;;215700;1300;22747;-53
2023/09/29 19:40:49;;;;;;;;;;;24.20;61.30;;;;;;216864;1296;22541;-54
2023/09/29 19:45:53;;;;;;;10.50;7.70;;;24.20;60.90;;;;;;216990;1283;25494;-56
2023/09/29 19:51:16;;;;;;;9.40;7.40;;;24.10;60.70;;;;;;217113;1292;24308;-54
2023/09/29 19:56:23;;;;;;;9.60;8.40;;;24.20;60.90;;;;;;216787;1298;24260;-56
2023/09/29 20:01:28;;;;;;;11.50;7.90;;;24.30;60.60;;;;;;217000;1295;25352;-56
2023/09/29 20:06:31;;;;;;;11.70;7.00;;;24.30;60.80;;;;;;216988;1292;22608;-58
2023/09/29 20:11:37;;;;;;;19.10;8.10;;;24.50;60.90;;;;;;217092;1292;22554;-59
2023/09/29 20:16:42;;;;;;;11.30;7.80;;;24.70;60.00;;;;;;216920;1298;23061;-61
2023/09/29 20:21:46;;;;;;;15.20;7.90;;;24.90;59.80;;;;;;216983;1291;25351;-60
2023/09/29 20:26:50;;;;;;;13.20;7.90;;;25.00;59.60;;;;;;217362;1295;25376;-58
2023/09/29 20:31:54;;;;;;;15.20;8.80;;;25.10;59.30;;;;;;217379;1291;22549;-59
2023/09/29 20:36:58;;;;;;;27.80;11.60;;;25.10;61.60;;;;;;217452;1292;22553;-60
2023/09/29 20:42:01;;;;;;;18.90;10.60;;;25.30;62.40;;;;;;217085;1292;25679;-59
2023/09/29 20:47:06;;;;;;;20.30;9.60;;;25.20;63.00;;;;;;217202;1292;22554;-62
2023/09/29 20:52:09;;;;;;;16.20;7.90;;;25.20;63.70;;;;;;217153;1291;22716;-60
2023/09/29 20:57:12;;;;;;;18.70;9.40;;;25.20;62.80;;;;;;217376;1291;24266;-61
2023/09/29 21:02:16;;;;;;;18.70;9.50;;;25.40;62.70;;;;;;217236;1294;24266;-60
2023/09/29 21:07:19;;;;;;;17.40;9.50;;;25.50;62.30;;;;;;217167;1291;25684;-61
2023/09/29 21:12:22;;;;;;;14.60;9.30;;;25.50;62.10;;;;;;217283;1292;22685;-60
2023/09/29 21:17:25;;;;;;;17.60;9.70;;;25.50;62.00;;;;;;217489;1294;24236;-61
2023/09/29 21:22:28;;;;;;;14.20;8.60;;;25.40;62.80;;;;;;217169;1283;25676;-60
2023/09/29 21:27:31;;;;;;;11.10;8.50;;;25.40;62.80;;;;;;216925;1293;22567;-63
2023/09/29 21:32:34;;;;;;;15.10;8.90;;;25.50;63.10;;;;;;217287;1298;24796;-60
2023/09/29 21:37:38;;;;;;;10.90;8.00;;;25.50;62.70;;;;;;218835;1288;24282;-60
2023/09/29 21:42:41;;;;;;;11.80;8.40;;;25.60;62.60;;;;;;217071;1292;22567;-61
2023/09/29 21:47:44;;;;;;;15.00;8.40;;;25.50;63.20;;;;;;217573;1291;22584;-61
2023/09/29 21:52:47;;;;;;;17.40;8.60;;;25.60;63.00;;;;;;217263;1291;22681;-62
2023/09/29 21:57:50;;;;;;;21.40;9.50;;;25.60;63.30;;;;;;217579;1292;22584;-60
2023/09/29 22:02:53;;;;;;;17.50;9.20;;;25.60;63.40;;;;;;217475;1291;22817;-62
2023/09/29 22:07:56;;;;;;;15.60;10.00;;;25.60;63.30;;;;;;217661;1292;22657;-61
2023/09/29 22:12:59;;;;;;;14.60;9.10;;;25.70;63.40;;;;;;216959;1291;22550;-59
2023/09/29 22:18:03;;;;;;;10.50;8.00;;;25.70;62.90;;;;;;218022;1294;22549;-61
2023/09/29 22:23:06;;;;;;;15.20;9.00;;;25.70;62.70;;;;;;217318;1289;24405;-61
2023/09/29 22:28:10;;;;;;;12.70;8.40;;;25.80;62.60;;;;;;217558;1296;25733;-61
2023/09/29 22:33:15;;;;;;;13.30;9.00;;;25.80;62.60;;;;;;217198;1293;25304;-61
2023/09/29 22:38:18;;;;;;;9.50;7.90;;;25.70;62.50;;;;;;217312;1298;24402;-61
2023/09/29 22:43:22;;;;;;;16.50;7.40;;;25.80;63.00;;;;;;217623;1294;24266;-62
2023/09/29 22:48:25;;;;;;;9.80;7.80;;;25.80;62.70;;;;;;217100;1291;22698;-65
2023/09/29 22:53:28;;;;;;;20.20;7.70;;;25.90;63.00;;;;;;217057;1294;22558;-64
2023/09/29 22:58:31;;;;;;;16.20;8.60;;;25.90;63.30;;;;;;217359;1292;23341;-64
2023/09/29 23:03:34;;;;;;;15.10;8.00;;;25.80;63.40;;;;;;217240;1294;22585;-65
2023/09/29 23:08:39;;;;;;;9.90;8.10;;;25.80;64.00;;;;;;217511;1292;22578;-65
2023/09/29 23:13:42;;;;;;;13.50;8.10;;;25.80;63.60;;;;;;217259;1292;25101;-64
2023/09/29 23:18:44;;;;;;;11.70;7.60;;;25.80;63.60;;;;;;216784;1291;22594;-63
2023/09/29 23:23:47;;;;;;;13.60;7.80;;;25.80;63.50;;;;;;216779;1298;22567;-62
2023/09/29 23:28:50;;;;;;;11.80;7.90;;;25.80;63.40;;;;;;219083;1291;22700;-62
2023/09/29 23:33:54;;;;;;;10.00;7.50;;;26.00;63.10;;;;;;221054;1292;22587;-63
2023/09/29 23:38:57;;;;;;;10.10;7.40;;;25.90;62.90;;;;;;217165;1294;22636;-63
2023/09/29 23:44:00;;;;;;;8.50;7.10;;;25.90;62.80;;;;;;217303;1291;22672;-64
2023/09/29 23:49:06;;;;;;;10.40;6.80;;;25.90;63.10;;;;;;217174;1291;24318;-64
2023/09/29 23:54:09;;;;;;;10.10;7.20;;;25.90;62.90;;;;;;217326;1285;22732;-63
2023/09/29 23:59:13;;;;;;;10.90;6.70;;;25.80;63.10;;;;;;217369;1292;22623;-65
